sensor_id;sensor_type;location;lat;lon;timestamp;P1;durP1;ratioP1;P2;durP2;ratioP2
25948;SDS011;13961;51.178;4.448;2022-12-18T00:02:16;60.58;;;20.60;;
25948;SDS011;13961;51.178;4.448;2022-12-18T00:04:43;69.18;;;22.27;;
25948;SDS011;13961;51.178;4.448;2022-12-18T00:07:08;69.88;;;22.92;;
25948;SDS011;13961;51.178;4.448;2022-12-18T00:09:35;66.38;;;21.73;;
25948;SDS011;13961;51.178;4.448;2022-12-18T00:12:02;65.60;;;20.48;;
25948;SDS011;13961;51.178;4.448;2022-12-18T00:14:29;69.70;;;20.58;;
25948;SDS011;13961;51.178;4.448;2022-12-18T00:16:56;62.45;;;20.67;;
25948;SDS011;13961;51.178;4.448;2022-12-18T00:19:26;60.25;;;20.15;;
25948;SDS011;13961;51.178;4.448;2022-12-18T00:21:52;74.85;;;22.40;;
25948;SDS011;13961;51.178;4.448;2022-12-18T00:24:18;69.50;;;21.30;;
25948;SDS011;13961;51.178;4.448;2022-12-18T00:26:44;66.60;;;21.13;;
25948;SDS011;13961;51.178;4.448;2022-12-18T00:29:12;74.60;;;22.50;;
25948;SDS011;13961;51.178;4.448;2022-12-18T00:31:39;63.85;;;20.65;;
25948;SDS011;13961;51.178;4.448;2022-12-18T00:34:10;65.00;;;20.73;;
25948;SDS011;13961;51.178;4.448;2022-12-18T00:36:38;69.13;;;23.00;;
25948;SDS011;13961;51.178;4.448;2022-12-18T00:39:07;68.25;;;22.95;;
25948;SDS011;13961;51.178;4.448;2022-12-18T00:41:34;58.92;;;21.38;;
25948;SDS011;13961;51.178;4.448;2022-12-18T00:44:19;59.30;;;20.65;;
25948;SDS011;13961;51.178;4.448;2022-12-18T00:46:46;71.95;;;22.85;;
25948;SDS011;13961;51.178;4.448;2022-12-18T00:49:16;71.40;;;22.92;;
25948;SDS011;13961;51.178;4.448;2022-12-18T00:51:45;72.65;;;21.92;;
25948;SDS011;13961;51.178;4.448;2022-12-18T00:54:11;79.07;;;21.13;;
25948;SDS011;13961;51.178;4.448;2022-12-18T00:56:37;64.53;;;21.77;;
25948;SDS011;13961;51.178;4.448;2022-12-18T00:59:05;63.83;;;22.95;;
25948;SDS011;13961;51.178;4.448;2022-12-18T01:04:01;68.97;;;22.48;;
25948;SDS011;13961;51.178;4.448;2022-12-18T01:06:33;58.50;;;21.70;;
25948;SDS011;13961;51.178;4.448;2022-12-18T01:09:01;75.10;;;21.65;;
25948;SDS011;13961;51.178;4.448;2022-12-18T01:11:27;68.70;;;22.88;;
25948;SDS011;13961;51.178;4.448;2022-12-18T01:13:53;66.15;;;21.80;;
25948;SDS011;13961;51.178;4.448;2022-12-18T01:16:22;64.78;;;20.95;;
25948;SDS011;13961;51.178;4.448;2022-12-18T01:18:51;63.20;;;21.77;;
25948;SDS011;13961;51.178;4.448;2022-12-18T01:21:21;68.18;;;22.58;;
25948;SDS011;13961;51.178;4.448;2022-12-18T01:23:51;59.67;;;21.90;;
25948;SDS011;13961;51.178;4.448;2022-12-18T01:26:18;63.70;;;21.50;;
25948;SDS011;13961;51.178;4.448;2022-12-18T01:28:47;66.18;;;23.08;;
25948;SDS011;13961;51.178;4.448;2022-12-18T01:31:18;63.30;;;21.88;;
25948;SDS011;13961;51.178;4.448;2022-12-18T01:33:50;62.05;;;22.23;;
25948;SDS011;13961;51.178;4.448;2022-12-18T01:36:19;60.45;;;20.75;;
25948;SDS011;13961;51.178;4.448;2022-12-18T01:38:49;53.30;;;19.75;;
25948;SDS011;13961;51.178;4.448;2022-12-18T01:41:17;63.55;;;21.10;;
25948;SDS011;13961;51.178;4.448;2022-12-18T01:46:15;61.35;;;20.52;;
25948;SDS011;13961;51.178;4.448;2022-12-18T01:48:42;59.35;;;21.58;;
25948;SDS011;13961;51.178;4.448;2022-12-18T01:51:11;63.35;;;20.75;;
25948;SDS011;13961;51.178;4.448;2022-12-18T01:53:40;59.05;;;21.13;;
25948;SDS011;13961;51.178;4.448;2022-12-18T01:56:11;66.15;;;21.88;;
25948;SDS011;13961;51.178;4.448;2022-12-18T01:58:41;62.25;;;20.58;;
25948;SDS011;13961;51.178;4.448;2022-12-18T02:01:23;45.83;;;15.65;;
25948;SDS011;13961;51.178;4.448;2022-12-18T02:03:52;70.97;;;20.15;;
25948;SDS011;13961;51.178;4.448;2022-12-18T02:06:25;67.00;;;21.67;;
25948;SDS011;13961;51.178;4.448;2022-12-18T02:22:29;63.10;;;19.00;;
25948;SDS011;13961;51.178;4.448;2022-12-18T02:27:40;56.25;;;19.38;;
25948;SDS011;13961;51.178;4.448;2022-12-18T02:30:08;54.92;;;18.73;;
25948;SDS011;13961;51.178;4.448;2022-12-18T02:32:37;53.80;;;18.80;;
25948;SDS011;13961;51.178;4.448;2022-12-18T02:35:14;66.05;;;19.65;;
25948;SDS011;13961;51.178;4.448;2022-12-18T02:37:44;58.60;;;20.40;;
25948;SDS011;13961;51.178;4.448;2022-12-18T02:40:14;61.95;;;18.75;;
25948;SDS011;13961;51.178;4.448;2022-12-18T02:42:44;58.40;;;20.13;;
25948;SDS011;13961;51.178;4.448;2022-12-18T02:45:10;53.42;;;18.73;;
25948;SDS011;13961;51.178;4.448;2022-12-18T02:47:38;52.08;;;17.92;;
25948;SDS011;13961;51.178;4.448;2022-12-18T02:53:49;49.28;;;17.67;;
25948;SDS011;13961;51.178;4.448;2022-12-18T03:01:08;57.92;;;17.55;;
25948;SDS011;13961;51.178;4.448;2022-12-18T03:03:56;56.35;;;18.33;;
25948;SDS011;13961;51.178;4.448;2022-12-18T03:09:40;45.10;;;16.77;;
25948;SDS011;13961;51.178;4.448;2022-12-18T03:12:24;49.65;;;17.35;;
25948;SDS011;13961;51.178;4.448;2022-12-18T03:17:31;51.58;;;16.73;;
25948;SDS011;13961;51.178;4.448;2022-12-18T03:20:08;43.20;;;17.10;;
25948;SDS011;13961;51.178;4.448;2022-12-18T03:22:39;51.38;;;15.57;;
25948;SDS011;13961;51.178;4.448;2022-12-18T03:25:11;34.13;;;11.20;;
25948;SDS011;13961;51.178;4.448;2022-12-18T03:27:42;47.13;;;15.63;;
25948;SDS011;13961;51.178;4.448;2022-12-18T03:30:16;44.58;;;16.38;;
25948;SDS011;13961;51.178;4.448;2022-12-18T03:32:58;50.90;;;17.45;;
25948;SDS011;13961;51.178;4.448;2022-12-18T03:35:34;48.10;;;15.45;;
25948;SDS011;13961;51.178;4.448;2022-12-18T03:38:02;41.72;;;14.65;;
25948;SDS011;13961;51.178;4.448;2022-12-18T03:40:45;38.53;;;14.98;;
25948;SDS011;13961;51.178;4.448;2022-12-18T03:45:54;39.70;;;15.77;;
25948;SDS011;13961;51.178;4.448;2022-12-18T03:48:37;42.85;;;15.20;;
25948;SDS011;13961;51.178;4.448;2022-12-18T03:51:11;40.42;;;15.25;;
25948;SDS011;13961;51.178;4.448;2022-12-18T03:56:22;39.05;;;14.48;;
25948;SDS011;13961;51.178;4.448;2022-12-18T03:58:59;29.67;;;10.90;;
25948;SDS011;13961;51.178;4.448;2022-12-18T04:01:34;35.95;;;13.73;;
25948;SDS011;13961;51.178;4.448;2022-12-18T04:04:03;42.05;;;15.73;;
25948;SDS011;13961;51.178;4.448;2022-12-18T04:06:32;51.15;;;14.45;;
25948;SDS011;13961;51.178;4.448;2022-12-18T04:08:58;33.67;;;13.82;;
25948;SDS011;13961;51.178;4.448;2022-12-18T04:11:26;38.90;;;14.10;;
25948;SDS011;13961;51.178;4.448;2022-12-18T04:13:57;31.50;;;13.23;;
25948;SDS011;13961;51.178;4.448;2022-12-18T04:16:24;41.88;;;14.38;;
25948;SDS011;13961;51.178;4.448;2022-12-18T04:18:51;42.05;;;15.15;;
25948;SDS011;13961;51.178;4.448;2022-12-18T04:21:17;36.38;;;14.13;;
25948;SDS011;13961;51.178;4.448;2022-12-18T04:23:45;34.97;;;13.40;;
25948;SDS011;13961;51.178;4.448;2022-12-18T04:26:12;38.42;;;13.80;;
25948;SDS011;13961;51.178;4.448;2022-12-18T04:28:39;37.83;;;14.68;;
25948;SDS011;13961;51.178;4.448;2022-12-18T04:31:06;29.23;;;11.93;;
25948;SDS011;13961;51.178;4.448;2022-12-18T04:33:33;34.88;;;13.82;;
25948;SDS011;13961;51.178;4.448;2022-12-18T04:36:02;33.50;;;13.10;;
25948;SDS011;13961;51.178;4.448;2022-12-18T04:38:29;37.97;;;13.52;;
25948;SDS011;13961;51.178;4.448;2022-12-18T04:40:57;34.65;;;12.65;;
25948;SDS011;13961;51.178;4.448;2022-12-18T04:43:24;36.90;;;13.40;;
25948;SDS011;13961;51.178;4.448;2022-12-18T04:45:50;31.13;;;12.48;;
25948;SDS011;13961;51.178;4.448;2022-12-18T04:48:16;31.13;;;13.95;;
25948;SDS011;13961;51.178;4.448;2022-12-18T04:50:43;34.45;;;12.68;;
25948;SDS011;13961;51.178;4.448;2022-12-18T04:53:10;33.22;;;13.10;;
25948;SDS011;13961;51.178;4.448;2022-12-18T04:55:37;34.38;;;11.75;;
25948;SDS011;13961;51.178;4.448;2022-12-18T04:58:04;32.55;;;13.10;;
25948;SDS011;13961;51.178;4.448;2022-12-18T05:00:32;29.42;;;11.68;;
25948;SDS011;13961;51.178;4.448;2022-12-18T05:03:00;31.35;;;12.15;;
25948;SDS011;13961;51.178;4.448;2022-12-18T05:05:28;32.15;;;11.50;;
25948;SDS011;13961;51.178;4.448;2022-12-18T05:07:53;33.75;;;12.60;;
25948;SDS011;13961;51.178;4.448;2022-12-18T05:10:20;36.03;;;12.50;;
25948;SDS011;13961;51.178;4.448;2022-12-18T05:12:47;28.77;;;10.98;;
25948;SDS011;13961;51.178;4.448;2022-12-18T05:15:31;31.65;;;11.60;;
25948;SDS011;13961;51.178;4.448;2022-12-18T05:17:58;36.25;;;12.77;;
25948;SDS011;13961;51.178;4.448;2022-12-18T05:20:28;31.48;;;11.95;;
25948;SDS011;13961;51.178;4.448;2022-12-18T05:22:55;32.22;;;11.77;;
25948;SDS011;13961;51.178;4.448;2022-12-18T05:25:21;22.38;;;10.80;;
25948;SDS011;13961;51.178;4.448;2022-12-18T05:27:47;28.92;;;12.25;;
25948;SDS011;13961;51.178;4.448;2022-12-18T05:35:11;29.77;;;11.70;;
25948;SDS011;13961;51.178;4.448;2022-12-18T05:37:37;27.52;;;12.43;;
25948;SDS011;13961;51.178;4.448;2022-12-18T05:40:04;30.70;;;11.93;;
25948;SDS011;13961;51.178;4.448;2022-12-18T05:42:30;30.17;;;11.80;;
25948;SDS011;13961;51.178;4.448;2022-12-18T05:44:56;36.50;;;13.35;;
25948;SDS011;13961;51.178;4.448;2022-12-18T05:47:23;33.40;;;12.13;;
25948;SDS011;13961;51.178;4.448;2022-12-18T05:49:48;33.13;;;12.13;;
25948;SDS011;13961;51.178;4.448;2022-12-18T05:52:15;32.85;;;11.57;;
25948;SDS011;13961;51.178;4.448;2022-12-18T05:54:41;29.02;;;11.13;;
25948;SDS011;13961;51.178;4.448;2022-12-18T05:57:06;29.83;;;11.82;;
25948;SDS011;13961;51.178;4.448;2022-12-18T05:59:33;32.35;;;12.90;;
25948;SDS011;13961;51.178;4.448;2022-12-18T06:01:59;30.10;;;11.98;;
25948;SDS011;13961;51.178;4.448;2022-12-18T06:04:26;28.38;;;10.73;;
25948;SDS011;13961;51.178;4.448;2022-12-18T06:06:54;31.38;;;11.75;;
25948;SDS011;13961;51.178;4.448;2022-12-18T06:09:23;36.03;;;12.60;;
25948;SDS011;13961;51.178;4.448;2022-12-18T06:11:51;27.98;;;11.85;;
25948;SDS011;13961;51.178;4.448;2022-12-18T06:14:18;27.45;;;10.70;;
25948;SDS011;13961;51.178;4.448;2022-12-18T06:16:45;28.95;;;12.57;;
25948;SDS011;13961;51.178;4.448;2022-12-18T06:19:14;29.65;;;11.13;;
25948;SDS011;13961;51.178;4.448;2022-12-18T06:21:40;28.60;;;10.95;;
25948;SDS011;13961;51.178;4.448;2022-12-18T06:24:06;32.15;;;12.43;;
25948;SDS011;13961;51.178;4.448;2022-12-18T06:26:38;26.05;;;10.93;;
25948;SDS011;13961;51.178;4.448;2022-12-18T06:31:33;28.60;;;9.85;;
25948;SDS011;13961;51.178;4.448;2022-12-18T06:33:59;28.45;;;10.63;;
25948;SDS011;13961;51.178;4.448;2022-12-18T06:36:28;26.90;;;11.70;;
25948;SDS011;13961;51.178;4.448;2022-12-18T06:38:56;22.42;;;9.45;;
25948;SDS011;13961;51.178;4.448;2022-12-18T06:41:23;23.65;;;10.80;;
25948;SDS011;13961;51.178;4.448;2022-12-18T06:43:51;25.10;;;9.45;;
25948;SDS011;13961;51.178;4.448;2022-12-18T06:46:18;26.58;;;10.10;;
25948;SDS011;13961;51.178;4.448;2022-12-18T06:48:48;31.85;;;10.55;;
25948;SDS011;13961;51.178;4.448;2022-12-18T06:51:19;20.40;;;10.35;;
25948;SDS011;13961;51.178;4.448;2022-12-18T06:53:49;32.85;;;11.45;;
25948;SDS011;13961;51.178;4.448;2022-12-18T06:56:18;23.90;;;9.93;;
25948;SDS011;13961;51.178;4.448;2022-12-18T07:01:15;24.60;;;10.00;;
25948;SDS011;13961;51.178;4.448;2022-12-18T07:03:47;23.13;;;9.23;;
25948;SDS011;13961;51.178;4.448;2022-12-18T07:06:18;28.83;;;10.23;;
25948;SDS011;13961;51.178;4.448;2022-12-18T07:08:46;28.63;;;10.77;;
25948;SDS011;13961;51.178;4.448;2022-12-18T07:11:15;24.42;;;9.52;;
25948;SDS011;13961;51.178;4.448;2022-12-18T07:13:43;27.30;;;10.40;;
25948;SDS011;13961;51.178;4.448;2022-12-18T07:16:19;25.85;;;10.07;;
25948;SDS011;13961;51.178;4.448;2022-12-18T07:18:47;27.25;;;10.30;;
25948;SDS011;13961;51.178;4.448;2022-12-18T07:21:15;26.08;;;10.32;;
25948;SDS011;13961;51.178;4.448;2022-12-18T07:23:43;27.80;;;10.02;;
25948;SDS011;13961;51.178;4.448;2022-12-18T07:26:14;24.23;;;10.23;;
25948;SDS011;13961;51.178;4.448;2022-12-18T07:28:43;30.23;;;10.60;;
25948;SDS011;13961;51.178;4.448;2022-12-18T07:31:11;31.88;;;10.35;;
25948;SDS011;13961;51.178;4.448;2022-12-18T07:33:39;30.55;;;11.20;;
25948;SDS011;13961;51.178;4.448;2022-12-18T07:36:09;25.23;;;10.30;;
25948;SDS011;13961;51.178;4.448;2022-12-18T07:41:08;25.67;;;9.10;;
25948;SDS011;13961;51.178;4.448;2022-12-18T07:43:38;24.02;;;10.32;;
25948;SDS011;13961;51.178;4.448;2022-12-18T07:46:05;26.35;;;10.43;;
25948;SDS011;13961;51.178;4.448;2022-12-18T07:48:34;24.60;;;10.45;;
25948;SDS011;13961;51.178;4.448;2022-12-18T07:51:03;19.50;;;9.15;;
25948;SDS011;13961;51.178;4.448;2022-12-18T07:53:32;27.15;;;9.38;;
25948;SDS011;13961;51.178;4.448;2022-12-18T07:55:59;24.17;;;9.82;;
25948;SDS011;13961;51.178;4.448;2022-12-18T07:58:30;28.13;;;10.23;;
25948;SDS011;13961;51.178;4.448;2022-12-18T08:01:07;25.90;;;10.32;;
25948;SDS011;13961;51.178;4.448;2022-12-18T08:03:38;24.77;;;10.30;;
25948;SDS011;13961;51.178;4.448;2022-12-18T08:06:07;21.88;;;10.15;;
25948;SDS011;13961;51.178;4.448;2022-12-18T08:08:35;28.38;;;11.10;;
25948;SDS011;13961;51.178;4.448;2022-12-18T08:11:03;21.88;;;10.02;;
25948;SDS011;13961;51.178;4.448;2022-12-18T08:13:29;25.20;;;10.38;;
25948;SDS011;13961;51.178;4.448;2022-12-18T08:15:57;26.85;;;9.57;;
25948;SDS011;13961;51.178;4.448;2022-12-18T08:18:27;24.70;;;8.95;;
25948;SDS011;13961;51.178;4.448;2022-12-18T08:20:54;22.25;;;9.00;;
25948;SDS011;13961;51.178;4.448;2022-12-18T08:23:22;27.30;;;10.65;;
25948;SDS011;13961;51.178;4.448;2022-12-18T08:25:49;27.15;;;11.27;;
25948;SDS011;13961;51.178;4.448;2022-12-18T08:28:15;24.35;;;9.10;;
25948;SDS011;13961;51.178;4.448;2022-12-18T08:30:42;18.35;;;9.18;;
25948;SDS011;13961;51.178;4.448;2022-12-18T08:33:08;24.27;;;9.43;;
25948;SDS011;13961;51.178;4.448;2022-12-18T08:35:37;22.85;;;9.73;;
25948;SDS011;13961;51.178;4.448;2022-12-18T08:38:02;23.60;;;9.60;;
25948;SDS011;13961;51.178;4.448;2022-12-18T08:40:28;18.30;;;9.23;;
25948;SDS011;13961;51.178;4.448;2022-12-18T08:42:54;27.10;;;9.85;;
25948;SDS011;13961;51.178;4.448;2022-12-18T08:45:39;19.20;;;8.90;;
25948;SDS011;13961;51.178;4.448;2022-12-18T08:48:06;25.00;;;9.65;;
25948;SDS011;13961;51.178;4.448;2022-12-18T08:50:31;23.08;;;9.70;;
25948;SDS011;13961;51.178;4.448;2022-12-18T08:53:00;22.23;;;9.93;;
25948;SDS011;13961;51.178;4.448;2022-12-18T08:55:28;24.10;;;10.38;;
25948;SDS011;13961;51.178;4.448;2022-12-18T08:57:53;25.10;;;9.15;;
25948;SDS011;13961;51.178;4.448;2022-12-18T09:00:19;25.50;;;9.70;;
25948;SDS011;13961;51.178;4.448;2022-12-18T09:02:51;23.90;;;8.98;;
25948;SDS011;13961;51.178;4.448;2022-12-18T09:05:17;18.48;;;8.85;;
25948;SDS011;13961;51.178;4.448;2022-12-18T09:07:48;17.95;;;8.45;;
25948;SDS011;13961;51.178;4.448;2022-12-18T09:10:15;20.98;;;9.25;;
25948;SDS011;13961;51.178;4.448;2022-12-18T09:12:40;20.70;;;9.18;;
25948;SDS011;13961;51.178;4.448;2022-12-18T09:17:36;23.27;;;9.43;;
25948;SDS011;13961;51.178;4.448;2022-12-18T09:20:04;21.45;;;9.15;;
25948;SDS011;13961;51.178;4.448;2022-12-18T09:22:30;24.92;;;9.65;;
25948;SDS011;13961;51.178;4.448;2022-12-18T09:24:59;28.83;;;10.57;;
25948;SDS011;13961;51.178;4.448;2022-12-18T09:27:27;23.88;;;9.88;;
25948;SDS011;13961;51.178;4.448;2022-12-18T09:29:54;23.15;;;10.15;;
25948;SDS011;13961;51.178;4.448;2022-12-18T09:32:23;23.95;;;9.52;;
25948;SDS011;13961;51.178;4.448;2022-12-18T09:34:50;24.75;;;9.80;;
25948;SDS011;13961;51.178;4.448;2022-12-18T09:37:16;20.83;;;8.75;;
25948;SDS011;13961;51.178;4.448;2022-12-18T09:39:42;21.75;;;8.57;;
25948;SDS011;13961;51.178;4.448;2022-12-18T09:42:12;19.50;;;8.88;;
25948;SDS011;13961;51.178;4.448;2022-12-18T09:44:49;21.77;;;9.18;;
25948;SDS011;13961;51.178;4.448;2022-12-18T09:47:18;22.58;;;9.32;;
25948;SDS011;13961;51.178;4.448;2022-12-18T09:49:46;24.83;;;9.88;;
25948;SDS011;13961;51.178;4.448;2022-12-18T09:54:45;22.50;;;9.18;;
25948;SDS011;13961;51.178;4.448;2022-12-18T09:57:23;22.75;;;8.43;;
25948;SDS011;13961;51.178;4.448;2022-12-18T10:00:00;19.05;;;6.25;;
25948;SDS011;13961;51.178;4.448;2022-12-18T10:02:41;19.00;;;8.00;;
25948;SDS011;13961;51.178;4.448;2022-12-18T10:05:10;19.52;;;8.23;;
25948;SDS011;13961;51.178;4.448;2022-12-18T10:10:34;18.38;;;8.13;;
25948;SDS011;13961;51.178;4.448;2022-12-18T10:18:42;22.10;;;8.48;;
25948;SDS011;13961;51.178;4.448;2022-12-18T10:21:32;16.42;;;8.05;;
25948;SDS011;13961;51.178;4.448;2022-12-18T10:27:15;24.70;;;8.32;;
25948;SDS011;13961;51.178;4.448;2022-12-18T10:29:43;21.55;;;8.57;;
25948;SDS011;13961;51.178;4.448;2022-12-18T10:32:18;15.05;;;7.63;;
25948;SDS011;13961;51.178;4.448;2022-12-18T10:34:49;18.63;;;7.60;;
25948;SDS011;13961;51.178;4.448;2022-12-18T10:37:20;24.10;;;8.88;;
25948;SDS011;13961;51.178;4.448;2022-12-18T10:40:08;18.52;;;7.90;;
25948;SDS011;13961;51.178;4.448;2022-12-18T10:42:39;16.00;;;7.68;;
25948;SDS011;13961;51.178;4.448;2022-12-18T10:45:11;19.35;;;7.82;;
25948;SDS011;13961;51.178;4.448;2022-12-18T10:50:32;16.80;;;7.70;;
25948;SDS011;13961;51.178;4.448;2022-12-18T10:52:59;20.00;;;8.48;;
25948;SDS011;13961;51.178;4.448;2022-12-18T10:55:31;20.10;;;8.13;;
25948;SDS011;13961;51.178;4.448;2022-12-18T11:01:16;18.90;;;8.50;;
25948;SDS011;13961;51.178;4.448;2022-12-18T11:03:58;21.10;;;8.63;;
25948;SDS011;13961;51.178;4.448;2022-12-18T11:06:29;19.10;;;8.32;;
25948;SDS011;13961;51.178;4.448;2022-12-18T11:09:03;23.80;;;10.02;;
25948;SDS011;13961;51.178;4.448;2022-12-18T11:11:31;20.33;;;8.93;;
25948;SDS011;13961;51.178;4.448;2022-12-18T11:14:05;18.50;;;9.00;;
25948;SDS011;13961;51.178;4.448;2022-12-18T11:16:44;20.40;;;8.90;;
25948;SDS011;13961;51.178;4.448;2022-12-18T11:21:50;19.33;;;8.93;;
25948;SDS011;13961;51.178;4.448;2022-12-18T11:24:35;18.25;;;8.93;;
25948;SDS011;13961;51.178;4.448;2022-12-18T11:27:03;20.35;;;8.90;;
25948;SDS011;13961;51.178;4.448;2022-12-18T11:29:39;17.15;;;8.27;;
25948;SDS011;13961;51.178;4.448;2022-12-18T11:34:39;21.02;;;8.77;;
25948;SDS011;13961;51.178;4.448;2022-12-18T11:37:09;18.70;;;8.60;;
25948;SDS011;13961;51.178;4.448;2022-12-18T11:45:28;17.67;;;8.18;;
25948;SDS011;13961;51.178;4.448;2022-12-18T11:53:16;19.92;;;9.20;;
25948;SDS011;13961;51.178;4.448;2022-12-18T11:55:55;18.52;;;8.23;;
25948;SDS011;13961;51.178;4.448;2022-12-18T12:01:05;18.70;;;8.75;;
25948;SDS011;13961;51.178;4.448;2022-12-18T12:03:51;22.95;;;9.07;;
25948;SDS011;13961;51.178;4.448;2022-12-18T12:06:21;19.95;;;9.55;;
25948;SDS011;13961;51.178;4.448;2022-12-18T12:09:15;22.00;;;9.13;;
25948;SDS011;13961;51.178;4.448;2022-12-18T12:14:55;20.25;;;8.52;;
25948;SDS011;13961;51.178;4.448;2022-12-18T12:20:22;17.45;;;8.68;;
25948;SDS011;13961;51.178;4.448;2022-12-18T12:23:00;21.52;;;9.45;;
25948;SDS011;13961;51.178;4.448;2022-12-18T12:31:13;18.70;;;8.88;;
25948;SDS011;13961;51.178;4.448;2022-12-18T12:39:21;22.77;;;9.07;;
25948;SDS011;13961;51.178;4.448;2022-12-18T12:41:53;18.35;;;9.13;;
25948;SDS011;13961;51.178;4.448;2022-12-18T12:44:43;20.08;;;8.57;;
25948;SDS011;13961;51.178;4.448;2022-12-18T12:47:30;20.35;;;9.32;;
25948;SDS011;13961;51.178;4.448;2022-12-18T12:50:02;20.48;;;10.00;;
25948;SDS011;13961;51.178;4.448;2022-12-18T12:52:35;42.10;;;12.95;;
25948;SDS011;13961;51.178;4.448;2022-12-18T12:55:26;31.58;;;11.00;;
25948;SDS011;13961;51.178;4.448;2022-12-18T13:03:43;20.90;;;9.02;;
25948;SDS011;13961;51.178;4.448;2022-12-18T13:08:59;17.83;;;8.73;;
25948;SDS011;13961;51.178;4.448;2022-12-18T13:11:34;17.83;;;8.60;;
25948;SDS011;13961;51.178;4.448;2022-12-18T13:20:09;20.60;;;9.43;;
25948;SDS011;13961;51.178;4.448;2022-12-18T13:28:00;17.00;;;8.23;;
25948;SDS011;13961;51.178;4.448;2022-12-18T13:35:51;24.45;;;10.07;;
25948;SDS011;13961;51.178;4.448;2022-12-18T13:41:39;19.10;;;9.90;;
25948;SDS011;13961;51.178;4.448;2022-12-18T13:43:55;21.35;;;10.18;;
25948;SDS011;13961;51.178;4.448;2022-12-18T13:46:47;21.30;;;9.63;;
25948;SDS011;13961;51.178;4.448;2022-12-18T13:49:25;21.67;;;10.32;;
25948;SDS011;13961;51.178;4.448;2022-12-18T13:55:02;25.75;;;11.80;;
25948;SDS011;13961;51.178;4.448;2022-12-18T13:57:37;21.48;;;10.05;;
25948;SDS011;13961;51.178;4.448;2022-12-18T14:02:50;18.95;;;9.73;;
25948;SDS011;13961;51.178;4.448;2022-12-18T14:05:23;28.45;;;11.43;;
25948;SDS011;13961;51.178;4.448;2022-12-18T14:08:15;25.45;;;10.95;;
25948;SDS011;13961;51.178;4.448;2022-12-18T14:10:43;29.67;;;11.75;;
25948;SDS011;13961;51.178;4.448;2022-12-18T14:13:15;22.00;;;10.98;;
25948;SDS011;13961;51.178;4.448;2022-12-18T14:15:56;26.88;;;11.77;;
25948;SDS011;13961;51.178;4.448;2022-12-18T14:21:04;28.05;;;10.80;;
25948;SDS011;13961;51.178;4.448;2022-12-18T14:28:56;24.25;;;11.98;;
25948;SDS011;13961;51.178;4.448;2022-12-18T14:31:28;27.58;;;11.60;;
25948;SDS011;13961;51.178;4.448;2022-12-18T14:33:57;27.65;;;11.35;;
25948;SDS011;13961;51.178;4.448;2022-12-18T14:36:27;24.42;;;11.55;;
25948;SDS011;13961;51.178;4.448;2022-12-18T14:38:59;22.95;;;11.23;;
25948;SDS011;13961;51.178;4.448;2022-12-18T14:41:32;24.58;;;11.02;;
25948;SDS011;13961;51.178;4.448;2022-12-18T14:44:04;28.63;;;12.13;;
25948;SDS011;13961;51.178;4.448;2022-12-18T14:49:01;22.48;;;11.55;;
25948;SDS011;13961;51.178;4.448;2022-12-18T14:51:30;24.77;;;11.75;;
25948;SDS011;13961;51.178;4.448;2022-12-18T14:53:58;23.40;;;10.88;;
25948;SDS011;13961;51.178;4.448;2022-12-18T14:56:27;21.05;;;10.77;;
25948;SDS011;13961;51.178;4.448;2022-12-18T14:59:01;26.52;;;11.70;;
25948;SDS011;13961;51.178;4.448;2022-12-18T15:01:34;25.02;;;11.65;;
25948;SDS011;13961;51.178;4.448;2022-12-18T15:04:36;23.00;;;12.20;;
25948;SDS011;13961;51.178;4.448;2022-12-18T15:07:09;24.25;;;11.90;;
25948;SDS011;13961;51.178;4.448;2022-12-18T15:09:42;27.80;;;11.88;;
25948;SDS011;13961;51.178;4.448;2022-12-18T15:12:34;28.50;;;12.40;;
25948;SDS011;13961;51.178;4.448;2022-12-18T15:15:02;31.27;;;13.27;;
25948;SDS011;13961;51.178;4.448;2022-12-18T15:17:29;25.17;;;11.73;;
25948;SDS011;13961;51.178;4.448;2022-12-18T15:20:00;32.20;;;13.00;;
25948;SDS011;13961;51.178;4.448;2022-12-18T15:22:29;26.00;;;12.07;;
25948;SDS011;13961;51.178;4.448;2022-12-18T15:24:58;29.58;;;12.77;;
25948;SDS011;13961;51.178;4.448;2022-12-18T15:32:37;30.77;;;12.88;;
25948;SDS011;13961;51.178;4.448;2022-12-18T15:37:39;26.02;;;12.43;;
25948;SDS011;13961;51.178;4.448;2022-12-18T15:40:06;23.80;;;11.98;;
25948;SDS011;13961;51.178;4.448;2022-12-18T15:42:33;25.85;;;12.60;;
25948;SDS011;13961;51.178;4.448;2022-12-18T15:45:18;31.15;;;12.77;;
25948;SDS011;13961;51.178;4.448;2022-12-18T15:47:43;28.08;;;12.52;;
25948;SDS011;13961;51.178;4.448;2022-12-18T15:50:11;28.50;;;12.32;;
25948;SDS011;13961;51.178;4.448;2022-12-18T15:57:58;27.85;;;11.60;;
25948;SDS011;13961;51.178;4.448;2022-12-18T16:00:24;28.83;;;11.68;;
25948;SDS011;13961;51.178;4.448;2022-12-18T16:02:50;26.77;;;12.13;;
25948;SDS011;13961;51.178;4.448;2022-12-18T16:05:17;26.58;;;11.93;;
25948;SDS011;13961;51.178;4.448;2022-12-18T16:07:44;33.65;;;13.38;;
25948;SDS011;13961;51.178;4.448;2022-12-18T16:10:11;29.98;;;12.65;;
25948;SDS011;13961;51.178;4.448;2022-12-18T16:12:37;32.38;;;13.50;;
25948;SDS011;13961;51.178;4.448;2022-12-18T16:15:03;29.20;;;12.55;;
25948;SDS011;13961;51.178;4.448;2022-12-18T16:17:32;29.00;;;13.55;;
25948;SDS011;13961;51.178;4.448;2022-12-18T16:19:58;29.92;;;12.80;;
25948;SDS011;13961;51.178;4.448;2022-12-18T16:22:24;30.88;;;13.40;;
25948;SDS011;13961;51.178;4.448;2022-12-18T16:24:54;33.05;;;13.07;;
25948;SDS011;13961;51.178;4.448;2022-12-18T16:27:20;31.83;;;12.48;;
25948;SDS011;13961;51.178;4.448;2022-12-18T16:29:47;29.30;;;12.93;;
25948;SDS011;13961;51.178;4.448;2022-12-18T16:32:17;29.67;;;12.80;;
25948;SDS011;13961;51.178;4.448;2022-12-18T16:34:44;25.38;;;12.40;;
25948;SDS011;13961;51.178;4.448;2022-12-18T16:37:13;27.30;;;12.80;;
25948;SDS011;13961;51.178;4.448;2022-12-18T16:39:41;26.40;;;12.80;;
25948;SDS011;13961;51.178;4.448;2022-12-18T16:42:15;32.28;;;12.38;;
25948;SDS011;13961;51.178;4.448;2022-12-18T16:44:44;29.67;;;13.48;;
25948;SDS011;13961;51.178;4.448;2022-12-18T16:47:11;34.85;;;13.52;;
25948;SDS011;13961;51.178;4.448;2022-12-18T16:49:40;30.65;;;13.15;;
25948;SDS011;13961;51.178;4.448;2022-12-18T16:52:07;30.55;;;13.50;;
25948;SDS011;13961;51.178;4.448;2022-12-18T16:54:33;29.33;;;14.10;;
25948;SDS011;13961;51.178;4.448;2022-12-18T16:57:01;32.20;;;12.98;;
25948;SDS011;13961;51.178;4.448;2022-12-18T16:59:30;29.48;;;12.90;;
25948;SDS011;13961;51.178;4.448;2022-12-18T17:01:56;26.67;;;12.48;;
25948;SDS011;13961;51.178;4.448;2022-12-18T17:04:21;28.67;;;12.38;;
25948;SDS011;13961;51.178;4.448;2022-12-18T17:06:48;31.45;;;13.20;;
25948;SDS011;13961;51.178;4.448;2022-12-18T17:09:16;31.77;;;13.60;;
25948;SDS011;13961;51.178;4.448;2022-12-18T17:11:47;32.13;;;13.95;;
25948;SDS011;13961;51.178;4.448;2022-12-18T17:14:13;32.38;;;13.27;;
25948;SDS011;13961;51.178;4.448;2022-12-18T17:16:41;32.92;;;14.48;;
25948;SDS011;13961;51.178;4.448;2022-12-18T17:19:07;29.58;;;13.15;;
25948;SDS011;13961;51.178;4.448;2022-12-18T17:21:33;30.77;;;13.18;;
25948;SDS011;13961;51.178;4.448;2022-12-18T17:23:59;33.88;;;13.85;;
25948;SDS011;13961;51.178;4.448;2022-12-18T17:26:26;32.92;;;12.27;;
25948;SDS011;13961;51.178;4.448;2022-12-18T17:28:54;35.22;;;13.25;;
25948;SDS011;13961;51.178;4.448;2022-12-18T17:31:21;27.65;;;13.00;;
25948;SDS011;13961;51.178;4.448;2022-12-18T17:33:49;31.05;;;13.60;;